sensor_id;sensor_type;location;lat;lon;timestamp;P1;durP1;ratioP1;P2;durP2;ratioP2
16502;SDS011;53067;48.114;11.694;2023-04-07T00:02:05;6.10;;;5.50;;
16502;SDS011;53067;48.114;11.694;2023-04-07T00:04:33;5.97;;;5.47;;
16502;SDS011;53067;48.114;11.694;2023-04-07T00:07:00;6.17;;;5.53;;
16502;SDS011;53067;48.114;11.694;2023-04-07T00:09:28;5.67;;;5.17;;
16502;SDS011;53067;48.114;11.694;2023-04-07T00:11:55;5.90;;;5.30;;
16502;SDS011;53067;48.114;11.694;2023-04-07T00:14:23;6.00;;;5.40;;
16502;SDS011;53067;48.114;11.694;2023-04-07T00:16:50;8.50;;;5.50;;
16502;SDS011;53067;48.114;11.694;2023-04-07T00:19:18;6.17;;;5.33;;
16502;SDS011;53067;48.114;11.694;2023-04-07T00:21:45;6.27;;;5.73;;
16502;SDS011;53067;48.114;11.694;2023-04-07T00:24:13;6.57;;;5.30;;
16502;SDS011;53067;48.114;11.694;2023-04-07T00:26:40;5.67;;;5.17;;
16502;SDS011;53067;48.114;11.694;2023-04-07T00:29:08;6.80;;;5.70;;
16502;SDS011;53067;48.114;11.694;2023-04-07T00:31:35;6.43;;;5.63;;
16502;SDS011;53067;48.114;11.694;2023-04-07T00:34:03;6.13;;;5.53;;
16502;SDS011;53067;48.114;11.694;2023-04-07T00:36:30;5.27;;;4.77;;
16502;SDS011;53067;48.114;11.694;2023-04-07T00:38:58;5.63;;;5.07;;
16502;SDS011;53067;48.114;11.694;2023-04-07T00:41:25;5.70;;;4.93;;
16502;SDS011;53067;48.114;11.694;2023-04-07T00:43:53;5.80;;;5.30;;
16502;SDS011;53067;48.114;11.694;2023-04-07T00:46:21;6.20;;;5.57;;
16502;SDS011;53067;48.114;11.694;2023-04-07T00:48:49;5.50;;;5.00;;
16502;SDS011;53067;48.114;11.694;2023-04-07T00:51:17;5.93;;;5.43;;
16502;SDS011;53067;48.114;11.694;2023-04-07T00:53:48;5.63;;;4.93;;
16502;SDS011;53067;48.114;11.694;2023-04-07T00:56:15;5.27;;;4.77;;
16502;SDS011;53067;48.114;11.694;2023-04-07T01:01:36;5.40;;;4.53;;
16502;SDS011;53067;48.114;11.694;2023-04-07T01:04:05;5.90;;;5.10;;
16502;SDS011;53067;48.114;11.694;2023-04-07T01:06:42;5.80;;;5.20;;
16502;SDS011;53067;48.114;11.694;2023-04-07T01:09:16;5.50;;;5.00;;
16502;SDS011;53067;48.114;11.694;2023-04-07T01:11:48;5.47;;;4.97;;
16502;SDS011;53067;48.114;11.694;2023-04-07T01:14:39;6.30;;;4.80;;
16502;SDS011;53067;48.114;11.694;2023-04-07T01:17:12;6.47;;;5.03;;
16502;SDS011;53067;48.114;11.694;2023-04-07T01:19:45;5.70;;;4.60;;
16502;SDS011;53067;48.114;11.694;2023-04-07T01:22:14;5.97;;;5.37;;
16502;SDS011;53067;48.114;11.694;2023-04-07T01:24:46;6.40;;;5.10;;
16502;SDS011;53067;48.114;11.694;2023-04-07T01:30:29;4.93;;;4.53;;
16502;SDS011;53067;48.114;11.694;2023-04-07T01:32:59;6.07;;;5.27;;
16502;SDS011;53067;48.114;11.694;2023-04-07T01:35:28;5.67;;;5.07;;
16502;SDS011;53067;48.114;11.694;2023-04-07T01:37:58;5.47;;;4.97;;
16502;SDS011;53067;48.114;11.694;2023-04-07T01:40:28;4.70;;;4.30;;
16502;SDS011;53067;48.114;11.694;2023-04-07T01:42:57;5.40;;;4.43;;
16502;SDS011;53067;48.114;11.694;2023-04-07T01:45:27;4.53;;;4.13;;
16502;SDS011;53067;48.114;11.694;2023-04-07T01:47:56;5.17;;;4.63;;
16502;SDS011;53067;48.114;11.694;2023-04-07T01:50:24;5.83;;;5.33;;
16502;SDS011;53067;48.114;11.694;2023-04-07T01:52:52;4.73;;;4.33;;
16502;SDS011;53067;48.114;11.694;2023-04-07T01:55:20;5.43;;;4.93;;
16502;SDS011;53067;48.114;11.694;2023-04-07T01:57:48;5.20;;;4.70;;
16502;SDS011;53067;48.114;11.694;2023-04-07T02:00:16;5.87;;;4.73;;
16502;SDS011;53067;48.114;11.694;2023-04-07T02:02:44;4.70;;;4.30;;
16502;SDS011;53067;48.114;11.694;2023-04-07T02:05:16;5.13;;;4.47;;
16502;SDS011;53067;48.114;11.694;2023-04-07T02:08:03;5.10;;;4.60;;
16502;SDS011;53067;48.114;11.694;2023-04-07T02:10:34;4.83;;;4.33;;
16502;SDS011;53067;48.114;11.694;2023-04-07T02:13:04;5.00;;;4.33;;
16502;SDS011;53067;48.114;11.694;2023-04-07T02:15:33;5.03;;;4.63;;
16502;SDS011;53067;48.114;11.694;2023-04-07T02:18:03;4.43;;;4.03;;
16502;SDS011;53067;48.114;11.694;2023-04-07T02:20:32;4.47;;;4.07;;
16502;SDS011;53067;48.114;11.694;2023-04-07T02:23:01;6.87;;;4.20;;
16502;SDS011;53067;48.114;11.694;2023-04-07T02:25:29;4.27;;;3.97;;
16502;SDS011;53067;48.114;11.694;2023-04-07T02:27:59;6.13;;;4.23;;
16502;SDS011;53067;48.114;11.694;2023-04-07T02:30:27;4.80;;;4.00;;
16502;SDS011;53067;48.114;11.694;2023-04-07T02:32:54;4.97;;;4.17;;
16502;SDS011;53067;48.114;11.694;2023-04-07T02:35:22;4.73;;;4.33;;
16502;SDS011;53067;48.114;11.694;2023-04-07T02:37:50;4.70;;;4.27;;
16502;SDS011;53067;48.114;11.694;2023-04-07T02:40:17;4.60;;;4.20;;
16502;SDS011;53067;48.114;11.694;2023-04-07T02:42:45;4.17;;;3.77;;
16502;SDS011;53067;48.114;11.694;2023-04-07T02:45:13;4.20;;;3.80;;
16502;SDS011;53067;48.114;11.694;2023-04-07T02:47:41;4.43;;;3.50;;
16502;SDS011;53067;48.114;11.694;2023-04-07T02:50:09;4.70;;;3.73;;
16502;SDS011;53067;48.114;11.694;2023-04-07T02:52:37;4.10;;;3.80;;
16502;SDS011;53067;48.114;11.694;2023-04-07T02:55:04;3.57;;;3.27;;
16502;SDS011;53067;48.114;11.694;2023-04-07T02:57:33;4.73;;;4.03;;
16502;SDS011;53067;48.114;11.694;2023-04-07T03:00:00;3.80;;;3.50;;
16502;SDS011;53067;48.114;11.694;2023-04-07T03:02:28;5.40;;;3.70;;
16502;SDS011;53067;48.114;11.694;2023-04-07T03:04:56;3.60;;;3.23;;
16502;SDS011;53067;48.114;11.694;2023-04-07T03:07:23;3.93;;;3.63;;
16502;SDS011;53067;48.114;11.694;2023-04-07T03:09:51;4.20;;;3.40;;
16502;SDS011;53067;48.114;11.694;2023-04-07T03:12:18;3.50;;;3.20;;
16502;SDS011;53067;48.114;11.694;2023-04-07T03:14:46;4.47;;;4.00;;
16502;SDS011;53067;48.114;11.694;2023-04-07T03:17:13;3.47;;;3.17;;
16502;SDS011;53067;48.114;11.694;2023-04-07T03:19:41;4.13;;;3.83;;
16502;SDS011;53067;48.114;11.694;2023-04-07T03:22:08;4.00;;;3.70;;
16502;SDS011;53067;48.114;11.694;2023-04-07T03:24:36;4.40;;;3.70;;
16502;SDS011;53067;48.114;11.694;2023-04-07T03:27:05;5.63;;;4.23;;
16502;SDS011;53067;48.114;11.694;2023-04-07T03:29:32;4.27;;;3.87;;
16502;SDS011;53067;48.114;11.694;2023-04-07T03:32:00;4.07;;;3.70;;
16502;SDS011;53067;48.114;11.694;2023-04-07T03:34:27;4.50;;;4.03;;
16502;SDS011;53067;48.114;11.694;2023-04-07T03:36:55;5.20;;;3.67;;
16502;SDS011;53067;48.114;11.694;2023-04-07T03:39:22;5.27;;;3.83;;
16502;SDS011;53067;48.114;11.694;2023-04-07T03:41:50;4.33;;;3.93;;
16502;SDS011;53067;48.114;11.694;2023-04-07T03:44:17;4.53;;;4.13;;
16502;SDS011;53067;48.114;11.694;2023-04-07T03:46:45;5.20;;;3.80;;
16502;SDS011;53067;48.114;11.694;2023-04-07T03:49:14;4.80;;;4.30;;
16502;SDS011;53067;48.114;11.694;2023-04-07T03:51:42;4.07;;;3.77;;
16502;SDS011;53067;48.114;11.694;2023-04-07T03:54:10;4.07;;;3.60;;
16502;SDS011;53067;48.114;11.694;2023-04-07T03:56:37;4.43;;;4.03;;
16502;SDS011;53067;48.114;11.694;2023-04-07T03:59:05;4.57;;;4.17;;
16502;SDS011;53067;48.114;11.694;2023-04-07T04:01:33;4.23;;;3.83;;
16502;SDS011;53067;48.114;11.694;2023-04-07T04:04:01;4.50;;;4.10;;
16502;SDS011;53067;48.114;11.694;2023-04-07T04:06:29;4.23;;;3.90;;
16502;SDS011;53067;48.114;11.694;2023-04-07T04:08:56;4.43;;;4.07;;
16502;SDS011;53067;48.114;11.694;2023-04-07T04:11:24;4.90;;;4.50;;
16502;SDS011;53067;48.114;11.694;2023-04-07T04:13:52;4.70;;;3.90;;
16502;SDS011;53067;48.114;11.694;2023-04-07T04:16:19;5.27;;;4.17;;
16502;SDS011;53067;48.114;11.694;2023-04-07T04:18:47;4.63;;;4.10;;
16502;SDS011;53067;48.114;11.694;2023-04-07T04:21:15;4.73;;;4.33;;
16502;SDS011;53067;48.114;11.694;2023-04-07T04:23:42;4.20;;;3.80;;
16502;SDS011;53067;48.114;11.694;2023-04-07T04:26:10;4.53;;;4.13;;
16502;SDS011;53067;48.114;11.694;2023-04-07T04:28:37;4.87;;;4.37;;
16502;SDS011;53067;48.114;11.694;2023-04-07T04:31:05;5.07;;;4.40;;
16502;SDS011;53067;48.114;11.694;2023-04-07T04:33:32;4.47;;;4.07;;
16502;SDS011;53067;48.114;11.694;2023-04-07T04:36:00;5.67;;;4.53;;
16502;SDS011;53067;48.114;11.694;2023-04-07T04:38:27;4.53;;;4.13;;
16502;SDS011;53067;48.114;11.694;2023-04-07T04:40:55;4.90;;;4.50;;
16502;SDS011;53067;48.114;11.694;2023-04-07T04:43:23;5.03;;;4.53;;
16502;SDS011;53067;48.114;11.694;2023-04-07T04:45:50;4.73;;;4.33;;
16502;SDS011;53067;48.114;11.694;2023-04-07T04:48:18;4.33;;;3.93;;
16502;SDS011;53067;48.114;11.694;2023-04-07T04:50:45;4.57;;;4.17;;
16502;SDS011;53067;48.114;11.694;2023-04-07T04:53:13;4.53;;;4.17;;
16502;SDS011;53067;48.114;11.694;2023-04-07T04:55:40;6.47;;;4.43;;
16502;SDS011;53067;48.114;11.694;2023-04-07T04:58:10;6.33;;;4.70;;
16502;SDS011;53067;48.114;11.694;2023-04-07T05:00:37;4.77;;;4.33;;
16502;SDS011;53067;48.114;11.694;2023-04-07T05:03:05;4.80;;;4.30;;
16502;SDS011;53067;48.114;11.694;2023-04-07T05:05:32;4.47;;;4.07;;
16502;SDS011;53067;48.114;11.694;2023-04-07T05:08:00;6.03;;;4.40;;
16502;SDS011;53067;48.114;11.694;2023-04-07T05:10:27;5.63;;;5.13;;
16502;SDS011;53067;48.114;11.694;2023-04-07T05:12:55;4.77;;;4.37;;
16502;SDS011;53067;48.114;11.694;2023-04-07T05:15:22;4.93;;;4.53;;
16502;SDS011;53067;48.114;11.694;2023-04-07T05:17:50;5.13;;;4.63;;
16502;SDS011;53067;48.114;11.694;2023-04-07T05:20:18;4.67;;;4.27;;
16502;SDS011;53067;48.114;11.694;2023-04-07T05:22:45;6.93;;;4.87;;
16502;SDS011;53067;48.114;11.694;2023-04-07T05:25:13;5.30;;;4.40;;
16502;SDS011;53067;48.114;11.694;2023-04-07T05:27:40;6.37;;;5.00;;
16502;SDS011;53067;48.114;11.694;2023-04-07T05:30:08;5.27;;;4.80;;
16502;SDS011;53067;48.114;11.694;2023-04-07T05:32:36;6.47;;;4.97;;
16502;SDS011;53067;48.114;11.694;2023-04-07T05:35:04;6.07;;;5.47;;
16502;SDS011;53067;48.114;11.694;2023-04-07T05:37:32;5.87;;;4.80;;
16502;SDS011;53067;48.114;11.694;2023-04-07T05:39:59;5.20;;;4.70;;
16502;SDS011;53067;48.114;11.694;2023-04-07T05:42:27;4.67;;;4.27;;
16502;SDS011;53067;48.114;11.694;2023-04-07T05:44:54;6.10;;;5.10;;
16502;SDS011;53067;48.114;11.694;2023-04-07T05:47:23;6.80;;;5.27;;
16502;SDS011;53067;48.114;11.694;2023-04-07T05:49:50;5.73;;;5.23;;
16502;SDS011;53067;48.114;11.694;2023-04-07T05:52:18;7.53;;;5.40;;
16502;SDS011;53067;48.114;11.694;2023-04-07T05:54:45;5.77;;;5.27;;
16502;SDS011;53067;48.114;11.694;2023-04-07T05:57:13;6.47;;;5.03;;
16502;SDS011;53067;48.114;11.694;2023-04-07T05:59:41;6.23;;;5.50;;
16502;SDS011;53067;48.114;11.694;2023-04-07T06:02:08;5.90;;;5.30;;
16502;SDS011;53067;48.114;11.694;2023-04-07T06:04:36;5.67;;;5.07;;
16502;SDS011;53067;48.114;11.694;2023-04-07T06:07:04;5.20;;;4.80;;
16502;SDS011;53067;48.114;11.694;2023-04-07T06:09:32;5.40;;;4.90;;
16502;SDS011;53067;48.114;11.694;2023-04-07T06:12:00;5.87;;;5.27;;
16502;SDS011;53067;48.114;11.694;2023-04-07T06:14:29;6.43;;;5.07;;
16502;SDS011;53067;48.114;11.694;2023-04-07T06:16:57;5.80;;;5.20;;
16502;SDS011;53067;48.114;11.694;2023-04-07T06:19:25;5.47;;;4.90;;
16502;SDS011;53067;48.114;11.694;2023-04-07T06:21:52;5.60;;;5.10;;
16502;SDS011;53067;48.114;11.694;2023-04-07T06:24:20;5.57;;;5.07;;
16502;SDS011;53067;48.114;11.694;2023-04-07T06:26:50;5.17;;;4.67;;
16502;SDS011;53067;48.114;11.694;2023-04-07T06:29:18;5.63;;;5.13;;
16502;SDS011;53067;48.114;11.694;2023-04-07T06:31:46;6.73;;;5.90;;
16502;SDS011;53067;48.114;11.694;2023-04-07T06:34:14;7.20;;;5.07;;
16502;SDS011;53067;48.114;11.694;2023-04-07T06:36:42;5.97;;;5.37;;
16502;SDS011;53067;48.114;11.694;2023-04-07T06:39:09;6.80;;;5.23;;
16502;SDS011;53067;48.114;11.694;2023-04-07T06:41:37;5.60;;;5.03;;
16502;SDS011;53067;48.114;11.694;2023-04-07T06:44:06;6.37;;;5.40;;
16502;SDS011;53067;48.114;11.694;2023-04-07T06:46:35;7.77;;;5.37;;
16502;SDS011;53067;48.114;11.694;2023-04-07T06:49:03;5.40;;;5.00;;
16502;SDS011;53067;48.114;11.694;2023-04-07T06:51:31;6.10;;;5.37;;
16502;SDS011;53067;48.114;11.694;2023-04-07T06:53:58;5.97;;;5.40;;
16502;SDS011;53067;48.114;11.694;2023-04-07T06:56:26;5.50;;;5.00;;
16502;SDS011;53067;48.114;11.694;2023-04-07T06:58:53;6.47;;;5.80;;
16502;SDS011;53067;48.114;11.694;2023-04-07T07:01:21;6.23;;;5.63;;
16502;SDS011;53067;48.114;11.694;2023-04-07T07:03:48;5.70;;;5.17;;
16502;SDS011;53067;48.114;11.694;2023-04-07T07:06:16;5.93;;;5.43;;
16502;SDS011;53067;48.114;11.694;2023-04-07T07:08:43;5.87;;;5.37;;
16502;SDS011;53067;48.114;11.694;2023-04-07T07:11:11;5.83;;;5.33;;
16502;SDS011;53067;48.114;11.694;2023-04-07T07:13:38;6.20;;;5.60;;
16502;SDS011;53067;48.114;11.694;2023-04-07T07:16:06;5.90;;;5.30;;
16502;SDS011;53067;48.114;11.694;2023-04-07T07:18:34;6.37;;;5.57;;
16502;SDS011;53067;48.114;11.694;2023-04-07T07:21:01;5.90;;;5.30;;
16502;SDS011;53067;48.114;11.694;2023-04-07T07:23:29;5.07;;;4.67;;
16502;SDS011;53067;48.114;11.694;2023-04-07T07:25:57;5.63;;;5.10;;
16502;SDS011;53067;48.114;11.694;2023-04-07T07:28:24;5.70;;;5.13;;
16502;SDS011;53067;48.114;11.694;2023-04-07T07:30:53;6.10;;;5.13;;
16502;SDS011;53067;48.114;11.694;2023-04-07T07:33:21;6.57;;;5.40;;
16502;SDS011;53067;48.114;11.694;2023-04-07T07:35:49;5.10;;;4.63;;
16502;SDS011;53067;48.114;11.694;2023-04-07T07:38:17;6.03;;;5.43;;
16502;SDS011;53067;48.114;11.694;2023-04-07T07:40:45;6.47;;;5.13;;
16502;SDS011;53067;48.114;11.694;2023-04-07T07:43:13;6.43;;;5.50;;
16502;SDS011;53067;48.114;11.694;2023-04-07T07:45:40;6.37;;;5.70;;
16502;SDS011;53067;48.114;11.694;2023-04-07T07:48:08;7.17;;;5.00;;
16502;SDS011;53067;48.114;11.694;2023-04-07T07:50:36;6.17;;;5.20;;
16502;SDS011;53067;48.114;11.694;2023-04-07T07:53:03;5.67;;;5.13;;
16502;SDS011;53067;48.114;11.694;2023-04-07T07:55:31;5.70;;;5.10;;
16502;SDS011;53067;48.114;11.694;2023-04-07T07:57:58;6.50;;;5.50;;
16502;SDS011;53067;48.114;11.694;2023-04-07T08:00:26;5.50;;;5.07;;
16502;SDS011;53067;48.114;11.694;2023-04-07T08:02:53;5.37;;;4.83;;
16502;SDS011;53067;48.114;11.694;2023-04-07T08:05:21;6.17;;;5.63;;
16502;SDS011;53067;48.114;11.694;2023-04-07T08:07:49;5.70;;;5.20;;
16502;SDS011;53067;48.114;11.694;2023-04-07T08:10:16;6.07;;;5.53;;
16502;SDS011;53067;48.114;11.694;2023-04-07T08:12:45;6.20;;;5.60;;
16502;SDS011;53067;48.114;11.694;2023-04-07T08:15:12;5.63;;;5.10;;
16502;SDS011;53067;48.114;11.694;2023-04-07T08:17:40;6.20;;;5.60;;
16502;SDS011;53067;48.114;11.694;2023-04-07T08:20:08;5.47;;;4.97;;
16502;SDS011;53067;48.114;11.694;2023-04-07T08:22:36;6.13;;;5.37;;
16502;SDS011;53067;48.114;11.694;2023-04-07T08:25:04;5.43;;;4.93;;
16502;SDS011;53067;48.114;11.694;2023-04-07T08:27:31;5.43;;;4.87;;
16502;SDS011;53067;48.114;11.694;2023-04-07T08:30:00;5.80;;;5.30;;
16502;SDS011;53067;48.114;11.694;2023-04-07T08:35:08;5.63;;;5.10;;
16502;SDS011;53067;48.114;11.694;2023-04-07T08:37:37;5.87;;;5.27;;
16502;SDS011;53067;48.114;11.694;2023-04-07T08:40:06;5.43;;;4.93;;
16502;SDS011;53067;48.114;11.694;2023-04-07T08:42:54;4.97;;;4.47;;
16502;SDS011;53067;48.114;11.694;2023-04-07T08:45:23;5.57;;;5.07;;
16502;SDS011;53067;48.114;11.694;2023-04-07T08:47:53;5.63;;;5.13;;
16502;SDS011;53067;48.114;11.694;2023-04-07T08:50:25;5.70;;;5.20;;
16502;SDS011;53067;48.114;11.694;2023-04-07T08:52:54;5.70;;;5.20;;
16502;SDS011;53067;48.114;11.694;2023-04-07T08:55:22;7.37;;;5.10;;
16502;SDS011;53067;48.114;11.694;2023-04-07T08:57:51;6.07;;;5.37;;
16502;SDS011;53067;48.114;11.694;2023-04-07T09:00:19;5.23;;;4.73;;
16502;SDS011;53067;48.114;11.694;2023-04-07T09:02:47;5.40;;;4.90;;
16502;SDS011;53067;48.114;11.694;2023-04-07T09:05:16;5.93;;;5.20;;
16502;SDS011;53067;48.114;11.694;2023-04-07T09:07:46;6.17;;;5.03;;
16502;SDS011;53067;48.114;11.694;2023-04-07T09:10:13;7.80;;;5.50;;
16502;SDS011;53067;48.114;11.694;2023-04-07T09:12:43;5.63;;;5.13;;
16502;SDS011;53067;48.114;11.694;2023-04-07T09:15:11;5.33;;;4.83;;
16502;SDS011;53067;48.114;11.694;2023-04-07T09:17:38;5.37;;;4.87;;
16502;SDS011;53067;48.114;11.694;2023-04-07T09:20:07;6.77;;;4.90;;
16502;SDS011;53067;48.114;11.694;2023-04-07T09:22:39;5.07;;;4.53;;
16502;SDS011;53067;48.114;11.694;2023-04-07T09:25:15;5.47;;;5.07;;
16502;SDS011;53067;48.114;11.694;2023-04-07T09:27:58;4.93;;;4.53;;
16502;SDS011;53067;48.114;11.694;2023-04-07T09:30:28;5.70;;;5.20;;
16502;SDS011;53067;48.114;11.694;2023-04-07T09:32:57;5.10;;;4.60;;
16502;SDS011;53067;48.114;11.694;2023-04-07T09:35:26;4.90;;;4.40;;
16502;SDS011;53067;48.114;11.694;2023-04-07T09:38:04;6.00;;;5.37;;
16502;SDS011;53067;48.114;11.694;2023-04-07T09:40:33;4.93;;;4.53;;
16502;SDS011;53067;48.114;11.694;2023-04-07T09:43:02;5.00;;;4.60;;
16502;SDS011;53067;48.114;11.694;2023-04-07T09:45:30;5.83;;;5.33;;
16502;SDS011;53067;48.114;11.694;2023-04-07T09:48:03;5.80;;;5.30;;
16502;SDS011;53067;48.114;11.694;2023-04-07T09:50:42;5.57;;;5.00;;
16502;SDS011;53067;48.114;11.694;2023-04-07T09:53:06;5.73;;;5.13;;
16502;SDS011;53067;48.114;11.694;2023-04-07T09:55:34;5.27;;;4.83;;
16502;SDS011;53067;48.114;11.694;2023-04-07T09:58:04;5.17;;;4.67;;
16502;SDS011;53067;48.114;11.694;2023-04-07T10:00:34;4.77;;;4.37;;
16502;SDS011;53067;48.114;11.694;2023-04-07T10:03:02;5.30;;;4.77;;
16502;SDS011;53067;48.114;11.694;2023-04-07T10:05:31;5.10;;;4.70;;
16502;SDS011;53067;48.114;11.694;2023-04-07T10:08:20;5.40;;;5.00;;
16502;SDS011;53067;48.114;11.694;2023-04-07T10:10:48;5.67;;;4.90;;
16502;SDS011;53067;48.114;11.694;2023-04-07T10:13:16;5.00;;;4.60;;
16502;SDS011;53067;48.114;11.694;2023-04-07T10:15:43;5.07;;;4.50;;
16502;SDS011;53067;48.114;11.694;2023-04-07T10:18:11;4.90;;;4.50;;
16502;SDS011;53067;48.114;11.694;2023-04-07T10:20:39;5.63;;;4.37;;
16502;SDS011;53067;48.114;11.694;2023-04-07T10:23:12;5.07;;;4.67;;
16502;SDS011;53067;48.114;11.694;2023-04-07T10:25:41;4.87;;;4.47;;
16502;SDS011;53067;48.114;11.694;2023-04-07T10:28:10;4.30;;;4.00;;
16502;SDS011;53067;48.114;11.694;2023-04-07T10:30:39;5.27;;;4.40;;
16502;SDS011;53067;48.114;11.694;2023-04-07T10:33:10;4.83;;;4.47;;
16502;SDS011;53067;48.114;11.694;2023-04-07T10:38:31;5.10;;;4.70;;
16502;SDS011;53067;48.114;11.694;2023-04-07T10:40:59;4.67;;;4.27;;
16502;SDS011;53067;48.114;11.694;2023-04-07T10:43:38;5.47;;;4.87;;
16502;SDS011;53067;48.114;11.694;2023-04-07T10:46:06;5.57;;;5.07;;
16502;SDS011;53067;48.114;11.694;2023-04-07T10:48:34;4.90;;;4.47;;
16502;SDS011;53067;48.114;11.694;2023-04-07T10:54:12;5.50;;;5.10;;
16502;SDS011;53067;48.114;11.694;2023-04-07T10:56:39;5.27;;;4.87;;
16502;SDS011;53067;48.114;11.694;2023-04-07T10:59:13;5.67;;;4.57;;
16502;SDS011;53067;48.114;11.694;2023-04-07T11:01:41;5.40;;;4.90;;
16502;SDS011;53067;48.114;11.694;2023-04-07T11:04:08;5.00;;;4.60;;
16502;SDS011;53067;48.114;11.694;2023-04-07T11:06:37;4.57;;;4.27;;
16502;SDS011;53067;48.114;11.694;2023-04-07T11:09:06;5.07;;;4.67;;
16502;SDS011;53067;48.114;11.694;2023-04-07T11:11:38;4.90;;;4.50;;
16502;SDS011;53067;48.114;11.694;2023-04-07T11:14:07;5.27;;;4.87;;
16502;SDS011;53067;48.114;11.694;2023-04-07T11:16:35;5.53;;;5.07;;
16502;SDS011;53067;48.114;11.694;2023-04-07T11:19:07;6.37;;;5.77;;
16502;SDS011;53067;48.114;11.694;2023-04-07T11:21:35;6.97;;;5.60;;
16502;SDS011;53067;48.114;11.694;2023-04-07T11:24:03;5.30;;;4.90;;
16502;SDS011;53067;48.114;11.694;2023-04-07T11:26:35;5.77;;;5.23;;
16502;SDS011;53067;48.114;11.694;2023-04-07T11:29:04;5.17;;;4.77;;
16502;SDS011;53067;48.114;11.694;2023-04-07T11:31:32;6.83;;;5.33;;
16502;SDS011;53067;48.114;11.694;2023-04-07T11:34:01;5.00;;;4.70;;
16502;SDS011;53067;48.114;11.694;2023-04-07T11:39:21;5.43;;;5.03;;
16502;SDS011;53067;48.114;11.694;2023-04-07T11:41:47;7.50;;;5.20;;
16502;SDS011;53067;48.114;11.694;2023-04-07T11:44:15;5.50;;;5.10;;
16502;SDS011;53067;48.114;11.694;2023-04-07T11:46:59;5.43;;;4.93;;
16502;SDS011;53067;48.114;11.694;2023-04-07T11:49:28;5.40;;;5.00;;
16502;SDS011;53067;48.114;11.694;2023-04-07T11:52:02;6.13;;;5.53;;
16502;SDS011;53067;48.114;11.694;2023-04-07T11:54:43;5.10;;;4.70;;
16502;SDS011;53067;48.114;11.694;2023-04-07T11:57:12;4.87;;;4.47;;
16502;SDS011;53067;48.114;11.694;2023-04-07T11:59:40;4.63;;;4.23;;
16502;SDS011;53067;48.114;11.694;2023-04-07T12:02:08;5.67;;;5.17;;
16502;SDS011;53067;48.114;11.694;2023-04-07T12:04:36;5.53;;;5.13;;
16502;SDS011;53067;48.114;11.694;2023-04-07T12:07:08;5.53;;;5.03;;
16502;SDS011;53067;48.114;11.694;2023-04-07T12:09:37;5.17;;;4.77;;
16502;SDS011;53067;48.114;11.694;2023-04-07T12:12:06;5.70;;;5.20;;
16502;SDS011;53067;48.114;11.694;2023-04-07T12:14:35;5.35;;;4.55;;
16502;SDS011;53067;48.114;11.694;2023-04-07T12:17:03;4.85;;;4.45;;
16502;SDS011;53067;48.114;11.694;2023-04-07T12:19:32;4.90;;;4.50;;
16502;SDS011;53067;48.114;11.694;2023-04-07T12:22:00;5.20;;;4.80;;
16502;SDS011;53067;48.114;11.694;2023-04-07T12:24:27;5.28;;;4.87;;
16502;SDS011;53067;48.114;11.694;2023-04-07T12:26:56;4.87;;;4.47;;
16502;SDS011;53067;48.114;11.694;2023-04-07T12:29:24;5.08;;;4.67;;
16502;SDS011;53067;48.114;11.694;2023-04-07T12:31:51;4.70;;;4.37;;
16502;SDS011;53067;48.114;11.694;2023-04-07T12:34:19;5.67;;;4.53;;
16502;SDS011;53067;48.114;11.694;2023-04-07T12:36:46;5.17;;;4.67;;
16502;SDS011;53067;48.114;11.694;2023-04-07T12:39:14;6.03;;;5.50;;
16502;SDS011;53067;48.114;11.694;2023-04-07T12:41:42;5.80;;;5.37;;
16502;SDS011;53067;48.114;11.694;2023-04-07T12:44:11;6.53;;;5.93;;
16502;SDS011;53067;48.114;11.694;2023-04-07T12:46:39;6.33;;;5.57;;
16502;SDS011;53067;48.114;11.694;2023-04-07T12:49:07;6.20;;;5.70;;
16502;SDS011;53067;48.114;11.694;2023-04-07T12:51:35;6.60;;;5.83;;
16502;SDS011;53067;48.114;11.694;2023-04-07T12:54:04;5.67;;;5.13;;
16502;SDS011;53067;48.114;11.694;2023-04-07T12:56:32;6.83;;;6.23;;
16502;SDS011;53067;48.114;11.694;2023-04-07T12:58:59;8.70;;;6.57;;
16502;SDS011;53067;48.114;11.694;2023-04-07T13:01:27;5.67;;;5.27;;
16502;SDS011;53067;48.114;11.694;2023-04-07T13:03:55;6.27;;;5.67;;
16502;SDS011;53067;48.114;11.694;2023-04-07T13:06:22;6.40;;;5.90;;
16502;SDS011;53067;48.114;11.694;2023-04-07T13:08:50;6.73;;;6.13;;
16502;SDS011;53067;48.114;11.694;2023-04-07T13:11:17;6.37;;;5.77;;
16502;SDS011;53067;48.114;11.694;2023-04-07T13:13:46;6.63;;;6.03;;
16502;SDS011;53067;48.114;11.694;2023-04-07T13:16:14;6.23;;;5.73;;
16502;SDS011;53067;48.114;11.694;2023-04-07T13:18:41;6.17;;;5.60;;
16502;SDS011;53067;48.114;11.694;2023-04-07T13:21:11;6.67;;;6.07;;
16502;SDS011;53067;48.114;11.694;2023-04-07T13:23:39;6.63;;;5.93;;
16502;SDS011;53067;48.114;11.694;2023-04-07T13:26:06;6.57;;;5.97;;
16502;SDS011;53067;48.114;11.694;2023-04-07T13:28:34;6.53;;;6.00;;
16502;SDS011;53067;48.114;11.694;2023-04-07T13:31:02;6.73;;;6.13;;
16502;SDS011;53067;48.114;11.694;2023-04-07T13:33:29;6.73;;;6.13;;
16502;SDS011;53067;48.114;11.694;2023-04-07T13:35:57;6.50;;;5.80;;
16502;SDS011;53067;48.114;11.694;2023-04-07T13:38:24;6.30;;;5.70;;
16502;SDS011;53067;48.114;11.694;2023-04-07T13:40:52;6.10;;;5.60;;
16502;SDS011;53067;48.114;11.694;2023-04-07T13:43:19;7.13;;;6.43;;
16502;SDS011;53067;48.114;11.694;2023-04-07T13:45:47;7.27;;;6.50;;
16502;SDS011;53067;48.114;11.694;2023-04-07T13:48:21;7.87;;;6.50;;
16502;SDS011;53067;48.114;11.694;2023-04-07T13:50:48;7.30;;;6.60;;
16502;SDS011;53067;48.114;11.694;2023-04-07T13:53:16;7.53;;;6.60;;
16502;SDS011;53067;48.114;11.694;2023-04-07T13:55:43;6.93;;;6.23;;
16502;SDS011;53067;48.114;11.694;2023-04-07T13:58:11;7.00;;;6.40;;
16502;SDS011;53067;48.114;11.694;2023-04-07T14:00:39;6.97;;;6.37;;
16502;SDS011;53067;48.114;11.694;2023-04-07T14:03:07;6.20;;;5.70;;
16502;SDS011;53067;48.114;11.694;2023-04-07T14:05:34;7.83;;;7.13;;
16502;SDS011;53067;48.114;11.694;2023-04-07T14:08:02;7.47;;;6.40;;
16502;SDS011;53067;48.114;11.694;2023-04-07T14:10:29;6.97;;;6.27;;
16502;SDS011;53067;48.114;11.694;2023-04-07T14:12:58;7.63;;;6.90;;
16502;SDS011;53067;48.114;11.694;2023-04-07T14:15:26;7.93;;;7.13;;
16502;SDS011;53067;48.114;11.694;2023-04-07T14:17:53;6.90;;;6.30;;
16502;SDS011;53067;48.114;11.694;2023-04-07T14:20:21;6.23;;;5.47;;
16502;SDS011;53067;48.114;11.694;2023-04-07T14:22:48;8.20;;;6.23;;
16502;SDS011;53067;48.114;11.694;2023-04-07T14:25:16;6.70;;;5.97;;
16502;SDS011;53067;48.114;11.694;2023-04-07T14:27:44;6.40;;;5.80;;
16502;SDS011;53067;48.114;11.694;2023-04-07T14:30:12;6.40;;;5.87;;
16502;SDS011;53067;48.114;11.694;2023-04-07T14:32:39;5.63;;;5.13;;
16502;SDS011;53067;48.114;11.694;2023-04-07T14:35:07;5.73;;;5.23;;
16502;SDS011;53067;48.114;11.694;2023-04-07T14:37:35;5.80;;;5.27;;
16502;SDS011;53067;48.114;11.694;2023-04-07T14:40:03;5.50;;;5.00;;
16502;SDS011;53067;48.114;11.694;2023-04-07T14:42:32;5.77;;;4.93;;
16502;SDS011;53067;48.114;11.694;2023-04-07T14:45:01;5.43;;;5.03;;
16502;SDS011;53067;48.114;11.694;2023-04-07T14:47:30;5.70;;;5.20;;
16502;SDS011;53067;48.114;11.694;2023-04-07T14:49:57;5.33;;;4.90;;
16502;SDS011;53067;48.114;11.694;2023-04-07T14:52:25;5.30;;;4.90;;
16502;SDS011;53067;48.114;11.694;2023-04-07T14:54:52;5.27;;;4.87;;
16502;SDS011;53067;48.114;11.694;2023-04-07T14:57:20;5.07;;;4.67;;
16502;SDS011;53067;48.114;11.694;2023-04-07T14:59:48;4.93;;;4.53;;